Time;durP1;ratioP1;P1;durP2;ratioP2;P2;SDS_P1;SDS_P2;PMS_P1;PMS_P2;Temp;Humidity;BMP_temperature;BMP_pressure;BME280_temperature;BME280_humidity;BME280_pressure;Samples;Min_cycle;Max_cycle;Signal;HPM_P1;HPM_P2
2023/12/02 00:00:42;;;;;;;28.15;17.73;;;-0.80;99.90;;;;;;4955814;28;20232;-79
2023/12/02 00:03:09;;;;;;;31.05;18.30;;;-0.80;99.90;;;;;;4955933;28;20232;-81
2023/12/02 00:05:37;;;;;;;32.13;16.58;;;-0.80;99.90;;;;;;4956489;28;20243;-81
2023/12/02 00:08:04;;;;;;;29.35;17.10;;;-0.70;99.90;;;;;;4957719;28;20234;-80
2023/12/02 00:10:32;;;;;;;31.15;19.02;;;-0.70;99.90;;;;;;4957988;28;20304;-80
2023/12/02 00:13:01;;;;;;;29.67;19.33;;;-0.80;99.90;;;;;;4956919;28;20227;-78
2023/12/02 00:15:28;;;;;;;30.90;19.00;;;-0.80;99.90;;;;;;4975517;28;20223;-79
2023/12/02 00:18:01;;;;;;;28.08;16.70;;;-0.80;99.90;;;;;;4971355;28;20314;-82
2023/12/02 00:20:29;;;;;;;28.65;17.40;;;-0.70;99.90;;;;;;4974473;28;20699;-82
2023/12/02 00:23:00;;;;;;;30.70;19.00;;;-0.70;99.90;;;;;;4974706;28;20227;-79
2023/12/02 00:25:31;;;;;;;30.05;18.80;;;-0.70;99.90;;;;;;4975818;28;20222;-79
2023/12/02 00:27:59;;;;;;;29.98;16.00;;;-0.70;99.90;;;;;;4975928;28;20319;-81
2023/12/02 00:30:27;;;;;;;27.40;17.00;;;-0.70;99.90;;;;;;4971979;28;20230;-82
2023/12/02 00:32:54;;;;;;;33.63;17.48;;;-0.70;99.90;;;;;;4956356;28;20232;-82
2023/12/02 00:35:21;;;;;;;25.63;15.65;;;-0.70;99.90;;;;;;4956543;28;20232;-81
2023/12/02 00:37:50;;;;;;;31.90;17.90;;;-0.70;99.90;;;;;;4953460;28;20239;-81
2023/12/02 00:43:10;;;;;;;25.73;18.65;;;-0.70;99.90;;;;;;4944470;28;20224;-78
2023/12/02 00:45:40;;;;;;;27.80;16.73;;;-0.70;99.90;;;;;;4956099;28;20228;-81
2023/12/02 00:48:09;;;;;;;29.13;16.48;;;-0.80;99.90;;;;;;4956122;28;20228;-78
2023/12/02 00:50:36;;;;;;;31.77;18.30;;;-0.70;99.90;;;;;;4954677;28;20232;-81
2023/12/02 00:53:03;;;;;;;33.88;18.45;;;-0.70;99.90;;;;;;4954260;28;20236;-80
2023/12/02 00:55:30;;;;;;;30.77;18.20;;;-0.70;99.90;;;;;;4956605;28;20231;-78
2023/12/02 00:57:58;;;;;;;33.80;17.60;;;-0.70;99.90;;;;;;4960285;28;20229;-79
2023/12/02 01:00:25;;;;;;;28.38;17.58;;;-0.70;99.90;;;;;;4958714;28;20291;-78
2023/12/02 01:02:53;;;;;;;30.80;18.23;;;-0.80;99.90;;;;;;4956824;28;20242;-80
2023/12/02 01:05:21;;;;;;;29.20;17.90;;;-0.90;99.90;;;;;;4962836;28;20234;-77
2023/12/02 01:07:49;;;;;;;33.92;18.15;;;-1.00;99.90;;;;;;4961490;28;20242;-77
2023/12/02 01:10:16;;;;;;;30.25;18.98;;;-1.00;99.90;;;;;;4944288;28;20215;-83
2023/12/02 01:12:49;;;;;;;26.13;14.95;;;-1.00;99.90;;;;;;4957491;28;20315;-80
2023/12/02 01:15:16;;;;;;;25.13;14.35;;;-1.10;99.90;;;;;;4955902;28;20646;-81
2023/12/02 01:17:43;;;;;;;26.08;15.80;;;-1.10;99.90;;;;;;4961390;28;20302;-77
2023/12/02 01:20:14;;;;;;;23.38;13.05;;;-1.10;99.90;;;;;;4961458;28;20243;-78
2023/12/02 01:22:42;;;;;;;24.30;14.55;;;-1.10;99.90;;;;;;4959629;28;20556;-77
2023/12/02 01:25:14;;;;;;;22.42;13.50;;;-1.00;99.90;;;;;;4958998;28;20314;-78
2023/12/02 01:27:41;;;;;;;30.42;16.60;;;-1.10;99.90;;;;;;4959961;28;20267;-77
2023/12/02 01:30:09;;;;;;;24.65;17.08;;;-1.10;99.90;;;;;;4960069;28;20235;-82
2023/12/02 01:32:36;;;;;;;26.98;14.45;;;-1.10;99.90;;;;;;4959503;28;20227;-78
2023/12/02 01:35:03;;;;;;;29.48;17.30;;;-1.10;99.90;;;;;;4958846;28;20227;-77
2023/12/02 01:37:31;;;;;;;31.38;15.95;;;-1.10;99.90;;;;;;4959655;28;20606;-77
2023/12/02 01:39:58;;;;;;;30.00;15.60;;;-1.20;99.90;;;;;;4958660;28;20236;-77
2023/12/02 01:42:25;;;;;;;27.70;16.35;;;-1.20;99.90;;;;;;4958757;28;20235;-77
2023/12/02 01:44:55;;;;;;;32.72;18.27;;;-1.20;99.90;;;;;;4959085;28;20239;-77
2023/12/02 01:47:22;;;;;;;33.67;16.80;;;-1.30;99.90;;;;;;4958926;28;20303;-77
2023/12/02 01:49:51;;;;;;;28.30;16.20;;;-1.30;99.90;;;;;;4958965;28;20228;-77
2023/12/02 01:52:18;;;;;;;30.80;16.60;;;-1.30;99.90;;;;;;4958424;28;20262;-77
2023/12/02 01:54:47;;;;;;;27.63;17.45;;;-1.30;99.90;;;;;;4959071;28;20716;-77
2023/12/02 01:57:15;;;;;;;32.25;17.15;;;-1.20;99.90;;;;;;4958093;28;20224;-77
2023/12/02 01:59:46;;;;;;;27.83;15.88;;;-1.30;99.90;;;;;;4958385;28;20224;-77
2023/12/02 02:02:13;;;;;;;34.30;18.35;;;-1.30;99.90;;;;;;4958108;28;20290;-77
2023/12/02 02:04:40;;;;;;;24.85;14.82;;;-1.30;99.90;;;;;;4958319;28;20246;-77
2023/12/02 02:07:07;;;;;;;36.45;17.80;;;-1.30;99.90;;;;;;4957528;28;20228;-78
2023/12/02 02:09:38;;;;;;;29.08;16.67;;;-1.30;99.90;;;;;;4958471;28;20552;-78
2023/12/02 02:12:07;;;;;;;27.58;15.40;;;-1.30;99.90;;;;;;4957705;28;20671;-78
2023/12/02 02:14:34;;;;;;;27.27;15.90;;;-1.30;99.90;;;;;;4958238;28;20232;-81
2023/12/02 02:17:01;;;;;;;30.20;16.10;;;-1.30;99.90;;;;;;4957515;28;20547;-80
2023/12/02 02:19:28;;;;;;;25.00;15.10;;;-1.50;99.90;;;;;;4958430;28;20239;-77
2023/12/02 02:21:56;;;;;;;29.48;16.08;;;-1.50;99.90;;;;;;4958038;28;20678;-77
2023/12/02 02:24:23;;;;;;;26.52;15.32;;;-1.50;99.90;;;;;;4957468;28;20316;-77
2023/12/02 02:26:51;;;;;;;27.58;14.48;;;-1.50;99.90;;;;;;4956883;28;20568;-81
2023/12/02 02:29:18;;;;;;;31.33;16.63;;;-1.60;99.90;;;;;;4957973;28;20228;-77
2023/12/02 02:31:45;;;;;;;31.65;15.82;;;-1.60;99.90;;;;;;4957813;28;20690;-77
2023/12/02 02:34:12;;;;;;;23.63;14.90;;;-1.50;99.90;;;;;;4957958;28;20236;-77
2023/12/02 02:36:39;;;;;;;26.80;15.27;;;-1.60;99.90;;;;;;4958254;28;20295;-80
2023/12/02 02:39:08;;;;;;;17.52;13.43;;;-1.60;99.90;;;;;;4957413;28;20224;-81
2023/12/02 02:41:35;;;;;;;31.95;17.50;;;-1.60;99.90;;;;;;4957442;28;20224;-80
2023/12/02 02:44:03;;;;;;;28.00;15.38;;;-1.60;99.90;;;;;;4958069;28;20232;-80
2023/12/02 02:46:30;;;;;;;28.73;15.93;;;-1.60;99.90;;;;;;4957410;28;20590;-80
2023/12/02 02:48:57;;;;;;;25.02;14.35;;;-1.60;99.90;;;;;;4958110;28;20587;-80
2023/12/02 02:51:26;;;;;;;21.55;15.15;;;-1.60;99.90;;;;;;4957678;28;20228;-81
2023/12/02 02:53:53;;;;;;;25.90;15.25;;;-1.60;99.90;;;;;;4957727;28;20578;-80
2023/12/02 02:56:21;;;;;;;23.17;14.63;;;-1.60;99.90;;;;;;4957053;28;20683;-77
2023/12/02 02:58:48;;;;;;;27.90;13.60;;;-1.60;99.90;;;;;;4957275;28;20239;-80
2023/12/02 03:01:16;;;;;;;25.70;13.88;;;-1.60;99.90;;;;;;4957499;28;20232;-77
2023/12/02 03:03:43;;;;;;;22.70;13.90;;;-1.50;99.90;;;;;;4958088;28;20598;-80
2023/12/02 03:06:10;;;;;;;22.17;14.02;;;-1.60;99.90;;;;;;4956927;28;20239;-80
2023/12/02 03:08:38;;;;;;;23.08;13.65;;;-1.60;99.90;;;;;;4957438;28;20239;-77
2023/12/02 03:11:05;;;;;;;23.00;13.88;;;-1.60;99.90;;;;;;4957610;28;20291;-80
2023/12/02 03:13:33;;;;;;;24.50;14.52;;;-1.60;99.90;;;;;;4956436;28;20677;-77
2023/12/02 03:16:00;;;;;;;26.73;13.85;;;-1.60;99.90;;;;;;4957275;28;20244;-77
2023/12/02 03:18:27;;;;;;;22.15;15.27;;;-1.60;99.90;;;;;;4956995;28;20224;-78
2023/12/02 03:20:54;;;;;;;21.55;13.45;;;-1.70;99.90;;;;;;4957507;28;20303;-80
2023/12/02 03:23:21;;;;;;;21.77;12.88;;;-1.70;99.90;;;;;;4956672;28;20228;-80
2023/12/02 03:25:49;;;;;;;23.00;13.20;;;-1.70;99.90;;;;;;4957462;28;20674;-80
2023/12/02 03:28:16;;;;;;;23.30;14.25;;;-1.70;99.90;;;;;;4956786;28;20246;-80
2023/12/02 03:30:43;;;;;;;24.33;13.93;;;-1.60;99.90;;;;;;4957040;28;20323;-80
2023/12/02 03:33:10;;;;;;;18.75;12.65;;;-1.60;99.90;;;;;;4956626;28;20224;-80
2023/12/02 03:35:37;;;;;;;19.95;13.30;;;-1.60;99.90;;;;;;4956949;28;20568;-77
2023/12/02 03:38:04;;;;;;;25.05;13.82;;;-1.60;99.90;;;;;;4956778;28;20317;-77
2023/12/02 03:40:31;;;;;;;19.15;13.35;;;-1.50;99.90;;;;;;4956609;28;20234;-78
2023/12/02 03:42:59;;;;;;;21.33;12.48;;;-1.50;99.90;;;;;;4956406;28;20224;-78
2023/12/02 03:45:26;;;;;;;21.58;11.85;;;-1.50;99.90;;;;;;4956534;28;20262;-81
2023/12/02 03:47:54;;;;;;;16.73;10.32;;;-1.50;99.90;;;;;;4956902;28;20279;-78
2023/12/02 03:50:21;;;;;;;17.60;10.93;;;-1.50;99.90;;;;;;4956044;28;20686;-80
2023/12/02 03:52:49;;;;;;;20.40;11.77;;;-1.50;99.90;;;;;;4956902;28;20236;-78
2023/12/02 03:55:18;;;;;;;17.05;10.82;;;-1.50;99.90;;;;;;4955979;28;20291;-77
2023/12/02 03:57:45;;;;;;;15.77;9.40;;;-1.50;99.90;;;;;;4956955;28;20524;-77
2023/12/02 04:00:13;;;;;;;16.88;10.07;;;-1.50;99.90;;;;;;4955997;28;20705;-80
2023/12/02 04:02:41;;;;;;;19.52;11.77;;;-1.40;99.90;;;;;;4956537;28;20242;-77
2023/12/02 04:05:13;;;;;;;16.52;10.38;;;-1.50;99.90;;;;;;4956337;28;20311;-80
2023/12/02 04:07:41;;;;;;;16.83;10.93;;;-1.40;99.90;;;;;;4955779;28;20228;-77
2023/12/02 04:10:09;;;;;;;16.88;11.35;;;-1.50;99.90;;;;;;4956226;28;20255;-77
2023/12/02 04:12:36;;;;;;;18.20;11.02;;;-1.50;99.90;;;;;;4954788;28;20236;-77
2023/12/02 04:15:04;;;;;;;17.77;11.10;;;-1.50;99.90;;;;;;4955435;28;20223;-80
2023/12/02 04:17:31;;;;;;;14.68;10.80;;;-1.50;99.90;;;;;;4955456;28;20242;-79
2023/12/02 04:19:59;;;;;;;14.70;10.35;;;-1.50;99.90;;;;;;4956304;28;20228;-77
2023/12/02 04:22:27;;;;;;;15.48;11.25;;;-1.50;99.90;;;;;;4955635;28;20276;-77
2023/12/02 04:24:54;;;;;;;12.73;9.80;;;-1.40;99.90;;;;;;4955690;28;20220;-81
2023/12/02 04:27:23;;;;;;;13.05;9.30;;;-1.50;99.90;;;;;;4955063;28;20251;-78
2023/12/02 04:29:49;;;;;;;15.32;9.02;;;-1.40;99.90;;;;;;4956131;28;20238;-80
2023/12/02 04:32:16;;;;;;;17.23;11.02;;;-1.40;99.90;;;;;;4956157;28;20672;-81
2023/12/02 04:34:43;;;;;;;12.95;9.70;;;-1.40;99.90;;;;;;4955587;28;21141;-80
2023/12/02 04:37:12;;;;;;;12.13;8.20;;;-1.40;99.90;;;;;;4955921;28;20711;-80
2023/12/02 04:39:41;;;;;;;16.30;10.65;;;-1.40;99.90;;;;;;4955523;28;20231;-80
2023/12/02 04:42:08;;;;;;;15.48;11.35;;;-1.40;99.90;;;;;;4955749;28;20243;-80
2023/12/02 04:44:35;;;;;;;16.13;9.45;;;-1.40;99.90;;;;;;4955705;28;20243;-81
2023/12/02 04:47:02;;;;;;;16.98;10.13;;;-1.50;99.90;;;;;;4955655;28;20299;-80
2023/12/02 04:49:29;;;;;;;11.70;9.38;;;-1.60;99.90;;;;;;4953945;28;20614;-77
2023/12/02 04:51:58;;;;;;;11.82;8.68;;;-1.60;99.90;;;;;;4954873;28;20341;-77
2023/12/02 04:54:25;;;;;;;10.88;9.10;;;-1.50;99.90;;;;;;4955423;28;20223;-80
2023/12/02 04:56:55;;;;;;;17.27;8.85;;;-1.50;99.90;;;;;;4955339;28;20224;-78
2023/12/02 04:59:22;;;;;;;12.32;9.18;;;-1.60;99.90;;;;;;4955243;28;20228;-77
2023/12/02 05:01:50;;;;;;;12.18;9.05;;;-1.60;99.90;;;;;;4954497;28;20279;-77
2023/12/02 05:04:17;;;;;;;10.60;8.25;;;-1.50;99.90;;;;;;4955432;28;20215;-80
2023/12/02 05:06:47;;;;;;;11.35;8.82;;;-1.50;99.90;;;;;;4955013;28;20302;-77
2023/12/02 05:09:16;;;;;;;13.88;9.82;;;-1.60;99.90;;;;;;4955641;28;20219;-76
2023/12/02 05:11:43;;;;;;;15.65;9.75;;;-1.60;99.90;;;;;;4954725;28;20223;-80
2023/12/02 05:14:11;;;;;;;12.80;8.50;;;-1.70;99.90;;;;;;4955290;28;20231;-80
2023/12/02 05:16:42;;;;;;;11.98;8.48;;;-1.70;99.90;;;;;;4955026;28;20231;-80
2023/12/02 05:19:10;;;;;;;11.90;8.80;;;-1.70;99.90;;;;;;4955351;28;20435;-80
2023/12/02 05:21:37;;;;;;;11.85;9.38;;;-1.80;99.90;;;;;;4954155;28;20237;-77
2023/12/02 05:24:13;;;;;;;12.05;8.68;;;-1.80;99.90;;;;;;4955214;28;20220;-77
2023/12/02 05:26:39;;;;;;;11.15;8.45;;;-1.80;99.90;;;;;;4954741;28;20250;-80
2023/12/02 05:29:07;;;;;;;12.60;8.45;;;-1.80;99.90;;;;;;4955249;28;20223;-77
2023/12/02 05:31:35;;;;;;;12.75;8.73;;;-1.90;99.90;;;;;;4954159;28;20227;-77
2023/12/02 05:34:02;;;;;;;13.85;7.93;;;-1.90;99.90;;;;;;4955204;28;20701;-80
2023/12/02 05:36:30;;;;;;;14.60;8.88;;;-1.80;99.90;;;;;;4954348;28;20231;-78
2023/12/02 05:38:57;;;;;;;11.73;8.57;;;-1.90;99.90;;;;;;4954698;28;20251;-77
2023/12/02 05:41:25;;;;;;;13.38;8.73;;;-1.90;99.90;;;;;;4954860;28;20239;-77
2023/12/02 05:43:53;;;;;;;14.27;7.97;;;-1.90;99.90;;;;;;4954097;28;20227;-77
2023/12/02 05:46:20;;;;;;;12.07;8.15;;;-1.90;99.90;;;;;;4955244;28;20235;-77
2023/12/02 05:48:49;;;;;;;14.07;8.10;;;-1.90;99.90;;;;;;4954585;28;20228;-77
2023/12/02 05:51:16;;;;;;;12.88;6.95;;;-2.00;99.90;;;;;;4954932;28;20738;-80
2023/12/02 05:53:43;;;;;;;11.63;7.95;;;-2.00;99.90;;;;;;4954045;28;20228;-80
2023/12/02 05:56:10;;;;;;;12.68;8.40;;;-2.00;99.90;;;;;;4954893;28;20234;-79
2023/12/02 05:58:37;;;;;;;11.77;8.80;;;-1.90;99.90;;;;;;4954275;28;20271;-77
2023/12/02 06:01:05;;;;;;;9.98;7.05;;;-1.90;99.90;;;;;;4956276;28;20617;-77
2023/12/02 06:03:32;;;;;;;12.15;8.45;;;-1.80;99.90;;;;;;4958062;28;20332;-78
2023/12/02 06:06:01;;;;;;;14.02;7.95;;;-1.80;99.90;;;;;;4958596;28;20255;-80
2023/12/02 06:08:28;;;;;;;10.95;7.85;;;-1.80;99.90;;;;;;4958665;28;20674;-77
2023/12/02 06:10:55;;;;;;;12.85;8.65;;;-1.70;99.90;;;;;;4957898;28;20279;-77
2023/12/02 06:13:23;;;;;;;13.60;7.15;;;-1.70;99.90;;;;;;4958171;28;20231;-80
2023/12/02 06:15:49;;;;;;;9.13;6.22;;;-1.70;99.90;;;;;;4957724;28;20236;-77
2023/12/02 06:18:16;;;;;;;9.55;7.03;;;-1.60;99.90;;;;;;4958352;28;20239;-80
2023/12/02 06:20:44;;;;;;;7.15;6.20;;;-1.60;99.90;;;;;;4958046;28;20315;-80
2023/12/02 06:23:12;;;;;;;9.77;7.03;;;-1.50;99.90;;;;;;4958554;28;20235;-77
2023/12/02 06:25:39;;;;;;;7.50;6.63;;;-1.50;99.90;;;;;;4957485;28;20239;-77
2023/12/02 06:28:06;;;;;;;11.88;6.75;;;-1.60;99.90;;;;;;4957430;28;20678;-77
2023/12/02 06:30:33;;;;;;;8.70;6.43;;;-1.50;99.90;;;;;;4957964;28;20227;-80
2023/12/02 06:33:01;;;;;;;8.85;6.82;;;-1.50;99.90;;;;;;4957630;28;20291;-77
2023/12/02 06:35:28;;;;;;;9.13;7.38;;;-1.60;99.90;;;;;;4958229;28;20727;-80
2023/12/02 06:37:55;;;;;;;9.38;6.05;;;-1.60;99.90;;;;;;4957552;28;20231;-77
2023/12/02 06:40:24;;;;;;;10.50;8.07;;;-1.60;99.90;;;;;;4958004;28;20637;-77
2023/12/02 06:42:51;;;;;;;8.65;7.70;;;-1.60;99.90;;;;;;4957349;28;20550;-77
2023/12/02 06:45:18;;;;;;;11.82;7.20;;;-1.50;99.90;;;;;;4957957;28;20224;-80
2023/12/02 06:47:45;;;;;;;9.40;7.22;;;-1.50;99.90;;;;;;4958485;28;20223;-80
2023/12/02 06:50:13;;;;;;;10.80;7.32;;;-1.50;99.90;;;;;;4958714;28;20291;-77
2023/12/02 06:52:39;;;;;;;9.77;7.00;;;-1.50;99.90;;;;;;4956597;28;20232;-77
2023/12/02 06:55:09;;;;;;;11.53;7.70;;;-1.50;99.90;;;;;;4957674;28;20232;-80
2023/12/02 06:57:37;;;;;;;11.10;7.90;;;-1.40;99.90;;;;;;4957171;28;20476;-79
2023/12/02 07:00:05;;;;;;;9.32;6.85;;;-1.50;99.90;;;;;;4957670;28;20227;-80
2023/12/02 07:02:32;;;;;;;11.82;7.85;;;-1.50;99.90;;;;;;4957603;28;20231;-81
2023/12/02 07:04:59;;;;;;;14.15;8.55;;;-1.50;99.90;;;;;;4957314;28;20658;-80
2023/12/02 07:07:26;;;;;;;12.15;9.70;;;-1.40;99.90;;;;;;4957712;28;20239;-80
2023/12/02 07:09:53;;;;;;;14.55;9.45;;;-1.40;99.90;;;;;;4957079;28;20238;-80
2023/12/02 07:12:20;;;;;;;12.85;9.13;;;-1.40;99.90;;;;;;4956261;28;20701;-78
2023/12/02 07:14:49;;;;;;;12.73;9.00;;;-1.40;99.90;;;;;;4957138;28;20227;-81
2023/12/02 07:17:16;;;;;;;15.60;9.20;;;-1.40;99.90;;;;;;4958940;28;20228;-81
2023/12/02 07:19:44;;;;;;;12.68;8.68;;;-1.30;99.90;;;;;;4957005;28;20248;-76
2023/12/02 07:22:11;;;;;;;13.73;8.25;;;-1.30;99.90;;;;;;4940101;29;20232;-77
2023/12/02 07:24:38;;;;;;;14.90;10.95;;;-1.30;99.90;;;;;;4955357;28;20244;-80
2023/12/02 07:27:08;;;;;;;20.33;13.88;;;-1.30;99.90;;;;;;4956696;28;20235;-81
2023/12/02 07:29:35;;;;;;;13.88;10.60;;;-1.20;99.90;;;;;;4957163;28;20549;-81
2023/12/02 07:32:05;;;;;;;11.57;8.05;;;-1.20;99.90;;;;;;4956608;28;20235;-77
2023/12/02 07:34:32;;;;;;;14.23;7.57;;;-1.10;99.90;;;;;;4957155;28;20229;-77
2023/12/02 07:37:02;;;;;;;11.27;8.52;;;-1.10;99.90;;;;;;4956546;28;20220;-77
2023/12/02 07:39:29;;;;;;;10.82;8.13;;;-1.10;99.90;;;;;;4957379;28;20228;-81
2023/12/02 07:42:01;;;;;;;14.13;9.15;;;-1.00;99.90;;;;;;4954845;28;20591;-81
2023/12/02 07:44:28;;;;;;;16.75;9.90;;;-1.00;99.90;;;;;;4956515;28;20749;-80
2023/12/02 07:46:55;;;;;;;12.50;8.50;;;-1.00;99.90;;;;;;4956297;28;20235;-78
2023/12/02 07:49:23;;;;;;;12.40;7.50;;;-0.90;99.90;;;;;;4956803;28;20231;-81
2023/12/02 07:51:50;;;;;;;13.38;7.40;;;-0.90;99.90;;;;;;4955516;28;20231;-80
2023/12/02 07:54:21;;;;;;;15.43;9.10;;;-0.90;99.90;;;;;;4956263;28;20228;-82
2023/12/02 07:56:48;;;;;;;12.40;7.85;;;-0.80;99.90;;;;;;4954391;28;20232;-78
2023/12/02 07:59:16;;;;;;;12.07;9.68;;;-0.80;99.90;;;;;;4956579;28;20231;-80
2023/12/02 08:01:43;;;;;;;11.48;9.27;;;-0.70;99.90;;;;;;4955663;28;20674;-80
2023/12/02 08:04:09;;;;;;;10.98;8.70;;;-0.70;99.90;;;;;;4956706;28;20220;-77
2023/12/02 08:06:39;;;;;;;10.40;7.40;;;-0.60;99.90;;;;;;4946162;28;20621;-78
2023/12/02 08:09:07;;;;;;;13.52;9.40;;;-0.60;99.90;;;;;;4955750;28;20551;-79
2023/12/02 08:11:34;;;;;;;10.90;8.30;;;-0.60;99.90;;;;;;4956370;28;20624;-81
2023/12/02 08:14:00;;;;;;;11.43;8.52;;;-0.60;99.90;;;;;;4955345;28;20236;-80
2023/12/02 08:16:28;;;;;;;14.10;9.13;;;-0.50;99.90;;;;;;4955834;28;20223;-78
2023/12/02 08:18:55;;;;;;;12.93;8.30;;;-0.50;99.90;;;;;;4955622;28;20238;-81
2023/12/02 08:21:22;;;;;;;15.43;8.77;;;-0.50;99.90;;;;;;4954737;28;20224;-80
2023/12/02 08:23:50;;;;;;;14.35;8.98;;;-0.50;99.90;;;;;;4954906;28;20316;-80
2023/12/02 08:26:17;;;;;;;10.75;7.75;;;-0.50;99.90;;;;;;4955613;28;20235;-78
2023/12/02 08:28:48;;;;;;;13.15;8.90;;;-0.40;99.90;;;;;;4955945;28;20571;-80
2023/12/02 08:31:16;;;;;;;12.88;8.50;;;-0.40;99.90;;;;;;4955526;28;20212;-80
2023/12/02 08:33:43;;;;;;;12.98;9.05;;;-0.40;99.90;;;;;;4955733;28;20232;-80
2023/12/02 08:36:11;;;;;;;12.40;8.23;;;-0.30;99.90;;;;;;4955196;28;20306;-78
2023/12/02 08:38:38;;;;;;;14.48;10.07;;;-0.30;99.90;;;;;;4955473;28;20232;-81
2023/12/02 08:41:07;;;;;;;18.38;9.48;;;-0.30;99.90;;;;;;4955420;28;20220;-81
2023/12/02 08:43:34;;;;;;;12.63;8.23;;;-0.30;99.90;;;;;;4955926;28;20236;-82
2023/12/02 08:46:01;;;;;;;17.63;9.52;;;-0.30;99.90;;;;;;4954889;28;20224;-79
2023/12/02 08:48:28;;;;;;;15.50;11.25;;;-0.30;99.90;;;;;;4955377;28;20306;-78
2023/12/02 08:50:55;;;;;;;15.52;9.05;;;-0.20;99.90;;;;;;4955240;28;20234;-77
2023/12/02 08:53:22;;;;;;;15.23;9.52;;;-0.20;99.90;;;;;;4955745;28;20224;-81
2023/12/02 08:55:50;;;;;;;10.88;8.52;;;-0.20;99.90;;;;;;4955763;28;20243;-81
2023/12/02 08:58:18;;;;;;;13.50;9.10;;;-0.10;99.90;;;;;;4956403;28;20234;-78
2023/12/02 09:00:45;;;;;;;12.35;8.25;;;-0.20;99.90;;;;;;4955556;28;20228;-78
2023/12/02 09:03:12;;;;;;;12.63;8.88;;;-0.10;99.90;;;;;;4955505;28;20231;-77
2023/12/02 09:05:40;;;;;;;14.23;9.10;;;0.00;99.90;;;;;;4957647;28;20670;-78
2023/12/02 09:08:07;;;;;;;13.45;9.02;;;0.00;99.90;;;;;;4955424;28;20235;-80
2023/12/02 09:10:34;;;;;;;12.60;9.32;;;0.00;99.90;;;;;;4957860;28;20271;-80
2023/12/02 09:13:01;;;;;;;13.63;8.98;;;0.00;99.90;;;;;;4957044;28;20251;-82
2023/12/02 09:15:40;;;;;;;15.10;11.27;;;0.00;99.90;;;;;;4947566;28;20236;-81
2023/12/02 09:18:18;;;;;;;17.15;11.85;;;0.10;99.90;;;;;;4944441;28;20682;-80
2023/12/02 09:20:48;;;;;;;12.27;8.77;;;0.10;99.90;;;;;;4954958;28;20228;-80
2023/12/02 09:23:16;;;;;;;13.32;9.30;;;0.10;99.90;;;;;;4954471;28;20234;-78
2023/12/02 09:25:44;;;;;;;13.10;7.82;;;0.10;99.90;;;;;;4955402;28;20232;-78
2023/12/02 09:28:18;;;;;;;12.02;8.20;;;0.10;99.90;;;;;;4954624;28;20238;-78
2023/12/02 09:30:56;;;;;;;13.75;9.73;;;0.10;99.90;;;;;;4955984;28;20306;-77
2023/12/02 09:33:23;;;;;;;15.07;10.40;;;0.10;99.90;;;;;;4955110;28;20235;-78
2023/12/02 09:35:55;;;;;;;15.23;10.35;;;0.20;99.90;;;;;;4956350;28;20224;-77
2023/12/02 09:38:23;;;;;;;15.90;9.80;;;0.20;99.90;;;;;;4958600;28;20362;-79
2023/12/02 09:41:18;;;;;;;14.02;8.05;;;0.20;99.90;;;;;;4958749;28;20567;-78
2023/12/02 09:44:04;;;;;;;12.13;7.40;;;0.30;99.90;;;;;;4958008;28;20541;-78
2023/12/02 09:46:38;;;;;;;12.50;8.15;;;0.30;99.90;;;;;;4958479;28;20226;-78
2023/12/02 09:49:29;;;;;;;11.82;9.30;;;0.30;99.90;;;;;;4959079;28;20670;-81
2023/12/02 09:52:24;;;;;;;11.05;7.65;;;0.30;99.90;;;;;;4947117;28;20361;-78
2023/12/02 09:55:00;;;;;;;12.23;8.57;;;0.40;99.90;;;;;;4958168;28;20568;-77
2023/12/02 09:57:34;;;;;;;11.50;8.48;;;0.40;99.90;;;;;;4958810;28;20620;-80
2023/12/02 10:00:09;;;;;;;12.57;8.13;;;0.40;99.90;;;;;;4958486;28;20257;-80
2023/12/02 10:02:49;;;;;;;12.27;8.50;;;0.40;99.90;;;;;;4958533;28;20227;-79
2023/12/02 10:05:17;;;;;;;13.50;10.00;;;0.40;99.90;;;;;;4958908;28;20662;-77
2023/12/02 10:07:59;;;;;;;11.55;7.50;;;0.40;99.90;;;;;;4958239;28;20279;-77
2023/12/02 10:10:37;;;;;;;16.60;9.50;;;0.50;99.90;;;;;;4958086;28;20307;-81
2023/12/02 10:13:20;;;;;;;13.48;9.98;;;0.40;99.90;;;;;;4958108;28;20315;-79
2023/12/02 10:15:49;;;;;;;16.38;10.48;;;0.50;99.90;;;;;;4958186;28;20247;-78
2023/12/02 10:18:22;;;;;;;17.77;11.10;;;0.40;99.90;;;;;;4958309;28;20310;-78
2023/12/02 10:21:00;;;;;;;15.38;8.95;;;0.50;99.90;;;;;;4957555;28;20627;-77
2023/12/02 10:23:36;;;;;;;18.08;10.95;;;0.50;99.90;;;;;;4957958;28;20224;-81
2023/12/02 10:26:25;;;;;;;16.38;9.13;;;0.50;99.90;;;;;;4957753;28;20562;-78
2023/12/02 10:29:13;;;;;;;15.32;10.20;;;0.60;99.90;;;;;;4957681;28;20251;-78
2023/12/02 10:31:49;;;;;;;14.88;9.32;;;0.60;99.90;;;;;;4957505;28;20235;-78
2023/12/02 10:34:24;;;;;;;12.52;8.23;;;0.60;99.90;;;;;;4958319;28;20224;-80
2023/12/02 10:36:56;;;;;;;14.10;8.55;;;0.60;99.90;;;;;;4957590;28;20315;-81
2023/12/02 10:39:42;;;;;;;12.98;9.88;;;0.50;99.90;;;;;;4957759;28;20220;-78
2023/12/02 10:42:14;;;;;;;16.23;10.63;;;0.50;99.90;;;;;;4957401;28;20311;-78
2023/12/02 10:44:45;;;;;;;16.27;11.80;;;0.50;99.90;;;;;;4957009;28;20227;-77
2023/12/02 10:47:13;;;;;;;17.42;11.00;;;0.50;99.90;;;;;;4956565;28;20560;-77
2023/12/02 10:49:43;;;;;;;16.48;12.68;;;0.50;99.90;;;;;;4957070;28;20227;-78
2023/12/02 10:52:16;;;;;;;18.85;11.45;;;0.40;99.90;;;;;;4957699;28;20231;-81
2023/12/02 10:54:49;;;;;;;13.82;9.50;;;0.40;99.90;;;;;;4956869;28;20216;-81
2023/12/02 10:57:20;;;;;;;16.73;10.25;;;0.40;99.90;;;;;;4957605;28;20295;-81
2023/12/02 11:00:06;;;;;;;16.90;11.18;;;0.40;99.90;;;;;;4957749;28;20216;-81
2023/12/02 11:02:43;;;;;;;16.30;10.30;;;0.40;99.90;;;;;;4957002;28;20314;-81
2023/12/02 11:05:21;;;;;;;12.00;10.02;;;0.40;99.90;;;;;;4957635;28;20282;-78
2023/12/02 11:07:52;;;;;;;13.80;8.30;;;0.40;99.90;;;;;;4956529;28;20314;-81
2023/12/02 11:10:28;;;;;;;9.25;7.43;;;0.40;99.90;;;;;;4957265;28;20574;-78
2023/12/02 11:13:00;;;;;;;11.73;8.23;;;0.40;99.90;;;;;;4956369;28;20238;-77
2023/12/02 11:15:32;;;;;;;13.55;9.38;;;0.40;99.90;;;;;;4957113;28;20256;-80
2023/12/02 11:18:03;;;;;;;9.10;7.00;;;0.30;99.90;;;;;;4957271;28;20319;-80
2023/12/02 11:20:44;;;;;;;11.85;8.07;;;0.30;99.90;;;;;;4956488;28;20302;-77
2023/12/02 11:23:22;;;;;;;12.27;9.10;;;0.30;99.90;;;;;;4957639;28;20239;-80
2023/12/02 11:26:10;;;;;;;10.70;7.10;;;0.30;99.90;;;;;;4955561;28;20220;-79
2023/12/02 11:28:50;;;;;;;10.20;7.60;;;0.30;99.90;;;;;;4955054;28;20682;-80
2023/12/02 11:31:32;;;;;;;9.80;6.93;;;0.30;99.90;;;;;;4956518;28;20220;-80
2023/12/02 11:34:13;;;;;;;10.27;7.78;;;0.30;99.90;;;;;;4956501;28;20227;-81
2023/12/02 11:36:51;;;;;;;11.30;7.70;;;0.20;99.90;;;;;;4956340;28;20228;-79
2023/12/02 11:39:30;;;;;;;10.75;7.53;;;0.10;99.90;;;;;;4956838;28;20295;-82
2023/12/02 11:42:04;;;;;;;11.75;7.45;;;0.10;99.90;;;;;;4955661;28;20246;-79
2023/12/02 11:44:42;;;;;;;10.13;7.70;;;0.10;99.90;;;;;;4957080;28;20228;-80
2023/12/02 11:47:27;;;;;;;13.10;9.00;;;0.10;99.90;;;;;;4956500;28;20302;-80
2023/12/02 11:50:15;;;;;;;11.70;8.65;;;0.10;99.90;;;;;;4956050;28;20659;-77
2023/12/02 11:52:58;;;;;;;13.88;8.88;;;0.10;99.90;;;;;;4956423;28;20228;-78
2023/12/02 11:55:31;;;;;;;14.95;9.52;;;0.10;99.90;;;;;;4955522;28;20239;-82
2023/12/02 11:58:12;;;;;;;11.75;7.63;;;0.20;99.90;;;;;;4956403;28;20220;-82
2023/12/02 12:00:53;;;;;;;8.68;7.07;;;0.10;99.90;;;;;;4956376;28;20664;-81
2023/12/02 12:03:41;;;;;;;15.63;11.25;;;0.10;99.90;;;;;;4956578;28;20576;-81
2023/12/02 12:06:20;;;;;;;20.42;13.13;;;0.10;99.90;;;;;;4955718;28;20232;-81
2023/12/02 12:09:01;;;;;;;20.40;12.80;;;0.10;99.90;;;;;;4955182;28;20232;-78
2023/12/02 12:11:30;;;;;;;14.40;9.50;;;0.10;99.90;;;;;;4955799;28;20307;-81
2023/12/02 12:13:58;;;;;;;11.75;8.00;;;0.00;99.90;;;;;;4955782;28;20571;-78
2023/12/02 12:16:25;;;;;;;12.50;8.05;;;0.00;99.90;;;;;;4954671;28;20228;-78
2023/12/02 12:18:52;;;;;;;11.00;7.70;;;0.00;99.90;;;;;;4947390;28;20228;-80
2023/12/02 12:21:19;;;;;;;10.48;7.70;;;0.00;99.90;;;;;;4955525;28;20282;-78
2023/12/02 12:23:48;;;;;;;11.48;7.68;;;0.00;99.90;;;;;;4956011;28;20314;-80
2023/12/02 12:26:16;;;;;;;12.35;8.18;;;0.00;99.90;;;;;;4955812;28;20215;-81
2023/12/02 12:28:43;;;;;;;11.45;8.20;;;0.00;99.90;;;;;;4956366;28;20227;-78
2023/12/02 12:31:11;;;;;;;12.43;7.32;;;0.10;99.90;;;;;;4953491;28;20295;-79
2023/12/02 12:33:39;;;;;;;11.23;8.75;;;0.10;99.90;;;;;;4955220;28;20232;-80
2023/12/02 12:36:07;;;;;;;13.70;8.18;;;0.10;99.90;;;;;;4955167;28;20228;-80
2023/12/02 12:38:34;;;;;;;10.70;7.70;;;0.10;99.90;;;;;;4955589;28;20666;-77
2023/12/02 12:41:02;;;;;;;14.98;9.88;;;0.10;99.90;;;;;;4955417;28;20238;-77
2023/12/02 12:43:31;;;;;;;13.30;8.75;;;0.20;99.90;;;;;;4955318;28;20677;-81
2023/12/02 12:45:58;;;;;;;18.73;10.68;;;0.20;99.90;;;;;;4954524;28;20688;-78
2023/12/02 12:48:29;;;;;;;17.83;10.68;;;0.20;99.90;;;;;;4955699;28;20255;-80
2023/12/02 12:50:59;;;;;;;16.77;10.50;;;0.30;99.90;;;;;;4954958;28;20255;-80